Clifton, Louisiana
Current Conditions -  °F | °C
As of 9:53 AM on Thursday 27 Nov 2014 (Local Time) from KAEX Reporting Station
Clear Clear  
Wind Chill: 53°   Ceiling: Unl
Heat Index: 53°   Visibility: 10mi
Dew Point: 29°   Wind: 14mph
Humidity: 40%   Direction: 10°N
Pressure: 30.49"   Gusts: NA
Location:  31.4254°N, 92.7765°W
Report Text: KAEX 271553Z AUTO 01012KT 10SM CLR 12/M02 A3049 RMK AO2 SLP331 T01171017
Loading
Personal Weather Stations






























Interactive Weather Map New forecast layout! Learn more

10-Day Weather Forecast

Advertisements
Track Severe Weather on mobile